Terminal Aerodrome Forecast
Issued by NWS

Home | Current Version | Previous Version | Text Only | Print | Product List | Glossary On
Versions: 1 2 3 4 5 6 7 8 9 10 11 12 13 14 15 16 17 18 19 20 21 22 23 24 25 26 27 28 29 30
000
FTUS41 KBOX 040422 AAA
TAFBAF
TAF AMD
KBAF 040422Z 0404/0424 VRB03KT 6SM -FZRA BR OVC007
     FM040700 21005KT P6SM -FZRA OVC015
     FM040900 23007KT P6SM OVC015
     FM041500 26007KT P6SM OVC035=

USA.gov is the U.S. government's official web portal to all federal, state and local government web resources and services.